createdAt,value
2022-11-09T00:00:15.008Z,95354
2022-11-09T00:01:23.763Z,95353
2022-11-09T00:02:33.544Z,95354
2022-11-09T00:03:43.286Z,95349
2022-11-09T00:04:53.108Z,95349
2022-11-09T00:06:01.986Z,95352
2022-11-09T00:07:11.760Z,95342
2022-11-09T00:08:21.511Z,95340
2022-11-09T00:09:29.233Z,95339
2022-11-09T00:10:38.924Z,95343
2022-11-09T00:11:49.696Z,95342
2022-11-09T00:12:59.419Z,95339
2022-11-09T00:14:09.145Z,95343
2022-11-09T00:15:16.922Z,95340
2022-11-09T00:16:25.661Z,95342
2022-11-09T00:17:35.510Z,95342
2022-11-09T00:18:43.297Z,95340
2022-11-09T00:19:52.044Z,95342
2022-11-09T00:21:00.927Z,95343
2022-11-09T00:22:09.689Z,95342
2022-11-09T00:23:19.735Z,95347
2022-11-09T00:24:27.180Z,95348
2022-11-09T00:25:35.888Z,95346
2022-11-09T00:26:45.678Z,95349
2022-11-09T00:27:54.463Z,95348
2022-11-09T00:29:03.203Z,95348
2022-11-09T00:30:11.965Z,95347
2022-11-09T00:31:20.648Z,95348
2022-11-09T00:32:30.404Z,95345
2022-11-09T00:33:38.062Z,95345
2022-11-09T00:34:46.814Z,95339
2022-11-09T00:35:56.696Z,95338
2022-11-09T00:37:05.419Z,95341
2022-11-09T00:38:15.198Z,95344
2022-11-09T00:39:25.067Z,95334
2022-11-09T00:40:33.810Z,95335
2022-11-09T00:41:43.532Z,95336
2022-11-09T00:42:52.305Z,95331
2022-11-09T00:44:01.070Z,95333
2022-11-09T00:45:10.772Z,95340
2022-11-09T00:46:18.564Z,95337
2022-11-09T00:47:27.310Z,95339
2022-11-09T00:48:37.065Z,95332
2022-11-09T00:49:45.788Z,95338
2022-11-09T00:50:55.558Z,95342
2022-11-09T00:52:05.333Z,95333
2022-11-09T00:53:14.073Z,95335
2022-11-09T00:54:22.797Z,95333
2022-11-09T00:55:30.532Z,95330
2022-11-09T00:56:39.289Z,95329
2022-11-09T00:57:50.139Z,95333
2022-11-09T00:58:58.965Z,95332
2022-11-09T01:00:08.711Z,95328
2022-11-09T01:01:18.448Z,95324
2022-11-09T01:02:29.188Z,95327
2022-11-09T01:03:38.046Z,95324
2022-11-09T01:04:46.806Z,95327
2022-11-09T01:05:55.568Z,95325
2022-11-09T01:07:05.577Z,95328
2022-11-09T01:08:14.220Z,95325
2022-11-09T01:09:24.047Z,95326
2022-11-09T01:10:32.806Z,95330
2022-11-09T01:11:40.578Z,95330
2022-11-09T01:12:50.289Z,95329
2022-11-09T01:13:59.000Z,95327
2022-11-09T01:15:08.746Z,95332
2022-11-09T01:16:18.529Z,95329
2022-11-09T01:17:28.224Z,95327
2022-11-09T01:18:37.956Z,95328
2022-11-09T01:19:47.679Z,95330
2022-11-09T01:20:56.511Z,95330
2022-11-09T01:22:05.193Z,95324
2022-11-09T01:23:13.956Z,95328
2022-11-09T01:24:23.805Z,95323
2022-11-09T01:25:33.633Z,95323
2022-11-09T01:26:41.341Z,95323
2022-11-09T01:27:51.107Z,95324
2022-11-09T01:29:00.879Z,95324
2022-11-09T01:30:08.587Z,95328
2022-11-09T01:31:17.297Z,95328
2022-11-09T01:32:26.099Z,95330
2022-11-09T01:33:35.838Z,95324
2022-11-09T01:34:45.551Z,95323
2022-11-09T01:35:53.316Z,95326
2022-11-09T01:37:02.088Z,95321
2022-11-09T01:38:11.845Z,95320
2022-11-09T01:39:19.572Z,95322
2022-11-09T01:40:29.351Z,95320
2022-11-09T01:41:38.176Z,95314
2022-11-09T01:42:46.898Z,95318
2022-11-09T01:43:55.708Z,95311
2022-11-09T01:45:03.458Z,95315
2022-11-09T01:46:13.233Z,95317
2022-11-09T01:47:22.947Z,95314
2022-11-09T01:48:30.673Z,95316
2022-11-09T01:49:39.334Z,95319
2022-11-09T01:50:48.068Z,95319
2022-11-09T01:51:57.893Z,95321
2022-11-09T01:53:07.604Z,95322
2022-11-09T01:54:15.350Z,95321
2022-11-09T01:55:25.078Z,95318
2022-11-09T01:56:34.861Z,95316
2022-11-09T01:57:43.570Z,95315
2022-11-09T01:58:52.326Z,95319
2022-11-09T02:00:01.153Z,95317
2022-11-09T02:01:11.171Z,95316
2022-11-09T02:02:20.748Z,95316
2022-11-09T02:03:30.545Z,95313
2022-11-09T02:04:40.334Z,95314
2022-11-09T02:05:49.993Z,95315
2022-11-09T02:06:58.901Z,95306
2022-11-09T02:08:08.591Z,95308
2022-11-09T02:09:17.349Z,95307
2022-11-09T02:10:25.097Z,95309
2022-11-09T02:11:33.802Z,95311
2022-11-09T02:12:42.775Z,95307
2022-11-09T02:13:51.462Z,95308
2022-11-09T02:15:01.164Z,95308
2022-11-09T02:16:09.839Z,95307
2022-11-09T02:17:18.484Z,95316
2022-11-09T02:18:28.273Z,95307
2022-11-09T02:19:36.970Z,95301
2022-11-09T02:20:46.826Z,95304
2022-11-09T02:21:56.458Z,95303
2022-11-09T02:23:05.195Z,95304
2022-11-09T02:24:14.954Z,95298
2022-11-09T02:25:22.694Z,95301
2022-11-09T02:26:31.422Z,95300
2022-11-09T02:27:41.112Z,95301
2022-11-09T02:28:49.869Z,95301
2022-11-09T02:29:59.595Z,95299
2022-11-09T02:31:08.324Z,95307
2022-11-09T02:32:18.127Z,95304
2022-11-09T02:33:27.863Z,95304
2022-11-09T02:34:37.617Z,95304
2022-11-09T02:35:47.406Z,95300
2022-11-09T02:36:57.215Z,95297
2022-11-09T02:38:06.841Z,95301
2022-11-09T02:39:16.596Z,95304
2022-11-09T02:40:25.307Z,95298
2022-11-09T02:41:34.093Z,95300
2022-11-09T02:42:43.867Z,95296
2022-11-09T02:43:52.593Z,95293
2022-11-09T02:45:02.346Z,95296
2022-11-09T02:46:12.125Z,95299
2022-11-09T02:47:20.884Z,95302
2022-11-09T02:48:30.623Z,95305
2022-11-09T02:49:40.412Z,95304
2022-11-09T02:50:50.210Z,95310
2022-11-09T02:51:59.994Z,95305
2022-11-09T02:53:09.751Z,95305
2022-11-09T02:54:18.456Z,95303
2022-11-09T02:55:28.232Z,95304
2022-11-09T02:56:36.960Z,95300
2022-11-09T02:57:45.720Z,95304
2022-11-09T02:58:55.489Z,95302
2022-11-09T03:00:03.243Z,95302
2022-11-09T03:01:10.979Z,95309
2022-11-09T03:02:20.644Z,95310
2022-11-09T03:03:29.472Z,95313
2022-11-09T03:04:39.261Z,95314
2022-11-09T03:05:47.956Z,95317
2022-11-09T03:06:57.764Z,95319
2022-11-09T03:08:07.486Z,95313
2022-11-09T03:09:17.221Z,95314
2022-11-09T03:10:26.061Z,95309
2022-11-09T03:11:34.792Z,95310
2022-11-09T03:12:43.493Z,95312
2022-11-09T03:13:53.243Z,95312
2022-11-09T03:15:00.920Z,95311
2022-11-09T03:16:09.738Z,95311
2022-11-09T03:17:19.472Z,95311
2022-11-09T03:18:28.218Z,95308
2022-11-09T03:19:37.241Z,95305
2022-11-09T03:20:45.858Z,95302
2022-11-09T03:21:54.628Z,95299
2022-11-09T03:23:04.378Z,95299
2022-11-09T03:24:12.092Z,95299
2022-11-09T03:25:20.761Z,95299
2022-11-09T03:26:30.513Z,95304
2022-11-09T03:27:38.271Z,95305
2022-11-09T03:28:47.045Z,95306
2022-11-09T03:29:55.754Z,95310
2022-11-09T03:31:05.487Z,95310
2022-11-09T03:32:15.227Z,95308
2022-11-09T03:33:23.967Z,95307
2022-11-09T03:34:33.733Z,95304
2022-11-09T03:35:43.546Z,95304
2022-11-09T03:36:52.208Z,95307
2022-11-09T03:38:01.932Z,95307
2022-11-09T03:39:10.645Z,95306
2022-11-09T03:40:20.403Z,95310
2022-11-09T03:41:30.106Z,95309
2022-11-09T03:42:37.884Z,95307
2022-11-09T03:43:45.633Z,95309
2022-11-09T03:44:55.388Z,95303
2022-11-09T03:46:04.170Z,95306
2022-11-09T03:47:12.880Z,95306
2022-11-09T03:48:22.657Z,95309
2022-11-09T03:49:32.243Z,95308
2022-11-09T03:50:41.978Z,95306
2022-11-09T03:51:50.650Z,95306
2022-11-09T03:52:59.371Z,95300
2022-11-09T03:54:09.136Z,95302
2022-11-09T03:55:16.890Z,95303
2022-11-09T03:56:26.666Z,95307
2022-11-09T03:57:36.367Z,95311
2022-11-09T03:58:45.102Z,95306
2022-11-09T03:59:54.867Z,95309
2022-11-09T04:01:03.629Z,95307
2022-11-09T04:02:12.429Z,95302
2022-11-09T04:03:22.425Z,95305
2022-11-09T04:04:29.947Z,95304
2022-11-09T04:05:39.667Z,95303
2022-11-09T04:06:48.381Z,95303
2022-11-09T04:07:57.014Z,95304
2022-11-09T04:09:05.673Z,95304
2022-11-09T04:10:14.353Z,95306
2022-11-09T04:11:24.040Z,95305
2022-11-09T04:12:33.728Z,95304
2022-11-09T04:13:43.396Z,95303
2022-11-09T04:14:52.122Z,95301
2022-11-09T04:16:01.790Z,95298
2022-11-09T04:17:10.523Z,95303
2022-11-09T04:18:20.285Z,95298
2022-11-09T04:19:28.147Z,95301
2022-11-09T04:20:36.839Z,95301
2022-11-09T04:21:46.574Z,95301
2022-11-09T04:22:54.253Z,95298
2022-11-09T04:24:04.030Z,95302
2022-11-09T04:25:12.839Z,95302
2022-11-09T04:26:20.575Z,95299
2022-11-09T04:27:30.275Z,95303
2022-11-09T04:28:38.123Z,95298
2022-11-09T04:29:47.756Z,95295
2022-11-09T04:30:57.534Z,95288
2022-11-09T04:32:06.374Z,95289
2022-11-09T04:33:16.137Z,95290
2022-11-09T04:34:25.097Z,95290
2022-11-09T04:35:33.801Z,95293
2022-11-09T04:36:43.540Z,95290
2022-11-09T04:37:51.279Z,95289
2022-11-09T04:39:00.004Z,95297
2022-11-09T04:40:09.755Z,95294
2022-11-09T04:41:19.507Z,95300
2022-11-09T04:42:28.384Z,95298
2022-11-09T04:43:37.160Z,95305
2022-11-09T04:44:44.896Z,95303
2022-11-09T04:45:53.584Z,95305
2022-11-09T04:47:04.254Z,95309
2022-11-09T04:48:11.011Z,95310
2022-11-09T04:49:20.783Z,95309
2022-11-09T04:50:29.518Z,95310
2022-11-09T04:51:38.354Z,95309
2022-11-09T04:52:48.032Z,95314
2022-11-09T04:53:55.799Z,95309
2022-11-09T04:55:04.512Z,95304
2022-11-09T04:56:14.292Z,95305
2022-11-09T04:57:23.151Z,95305
2022-11-09T04:58:31.881Z,95308
2022-11-09T04:59:41.608Z,95305
2022-11-09T05:00:50.318Z,95305
2022-11-09T05:02:00.070Z,95308
2022-11-09T05:03:07.840Z,95307
2022-11-09T05:04:17.623Z,95308
2022-11-09T05:05:27.357Z,95311
2022-11-09T05:06:36.118Z,95312
2022-11-09T05:07:45.756Z,95311
2022-11-09T05:08:54.628Z,95312
2022-11-09T05:10:04.421Z,95312
2022-11-09T05:11:14.263Z,95313
2022-11-09T05:12:23.018Z,95313
2022-11-09T05:13:31.762Z,95312
2022-11-09T05:14:41.545Z,95307
2022-11-09T05:15:49.294Z,95309
2022-11-09T05:17:00.127Z,95308
2022-11-09T05:18:09.808Z,95303
2022-11-09T05:19:18.554Z,95308
2022-11-09T05:20:29.268Z,95315
2022-11-09T05:21:38.031Z,95310
2022-11-09T05:22:47.984Z,95312
2022-11-09T05:23:57.725Z,95312
2022-11-09T05:25:05.539Z,95320
2022-11-09T05:26:15.308Z,95319
2022-11-09T05:27:24.020Z,95314
2022-11-09T05:28:33.766Z,95318
2022-11-09T05:29:43.510Z,95319
2022-11-09T05:30:50.247Z,95320
2022-11-09T05:31:59.026Z,95320
2022-11-09T05:33:08.829Z,95323
2022-11-09T05:34:18.582Z,95321
2022-11-09T05:35:28.334Z,95316
2022-11-09T05:36:37.063Z,95316
2022-11-09T05:37:45.782Z,95316
2022-11-09T05:38:55.492Z,95312
2022-11-09T05:40:04.263Z,95315
2022-11-09T05:41:13.979Z,95311
2022-11-09T05:42:23.803Z,95310
2022-11-09T05:43:33.531Z,95304
2022-11-09T05:44:42.378Z,95305
2022-11-09T05:45:51.160Z,95309
2022-11-09T05:46:59.906Z,95309
2022-11-09T05:48:09.738Z,95308
2022-11-09T05:49:19.477Z,95308
2022-11-09T05:50:29.198Z,95309
2022-11-09T05:51:38.988Z,95306
2022-11-09T05:52:46.688Z,95306
2022-11-09T05:53:55.444Z,95307
2022-11-09T05:55:04.186Z,95306
2022-11-09T05:56:13.168Z,95303
2022-11-09T05:57:23.095Z,95307
2022-11-09T05:58:31.864Z,95302
2022-11-09T05:59:40.550Z,95305
2022-11-09T06:00:50.337Z,95309
2022-11-09T06:01:58.088Z,95309
2022-11-09T06:03:06.881Z,95313
2022-11-09T06:04:15.569Z,95320
2022-11-09T06:05:24.343Z,95318
2022-11-09T06:06:35.190Z,95323
2022-11-09T06:07:42.842Z,95325
2022-11-09T06:08:52.624Z,95328
2022-11-09T06:10:02.324Z,95325
2022-11-09T06:11:10.045Z,95328
2022-11-09T06:12:20.793Z,95329
2022-11-09T06:13:28.581Z,95333
2022-11-09T06:14:37.368Z,95331
2022-11-09T06:15:47.048Z,95332
2022-11-09T06:16:55.789Z,95331
2022-11-09T06:18:04.573Z,95332
2022-11-09T06:19:14.452Z,95331
2022-11-09T06:20:23.205Z,95332
2022-11-09T06:21:31.975Z,95338
2022-11-09T06:22:41.665Z,95339
2022-11-09T06:23:50.406Z,95348
2022-11-09T06:25:00.207Z,95336
2022-11-09T06:26:10.161Z,95336
2022-11-09T06:27:18.837Z,95348
2022-11-09T06:28:28.564Z,95345
2022-11-09T06:29:37.316Z,95345
2022-11-09T06:30:47.099Z,95349
2022-11-09T06:31:55.941Z,95346
2022-11-09T06:33:04.658Z,95351
2022-11-09T06:34:14.403Z,95353
2022-11-09T06:35:23.123Z,95349
2022-11-09T06:36:31.882Z,95352
2022-11-09T06:37:41.593Z,95356
2022-11-09T06:38:51.336Z,95355
2022-11-09T06:40:01.130Z,95359
2022-11-09T06:41:09.854Z,95364
2022-11-09T06:42:17.631Z,95370
2022-11-09T06:43:27.466Z,95367
2022-11-09T06:44:37.233Z,95372
2022-11-09T06:45:45.095Z,95376
2022-11-09T06:46:53.812Z,95385
2022-11-09T06:48:02.561Z,95392
2022-11-09T06:49:10.318Z,95400
2022-11-09T06:50:20.057Z,95402
2022-11-09T06:51:28.909Z,95406
2022-11-09T06:52:37.650Z,95414
2022-11-09T06:53:47.403Z,95414
2022-11-09T06:54:57.175Z,95428
2022-11-09T06:56:06.946Z,95429
2022-11-09T06:57:15.724Z,95433
2022-11-09T06:58:24.446Z,95428
2022-11-09T06:59:34.212Z,95433
2022-11-09T07:00:41.985Z,95432
2022-11-09T07:01:51.752Z,95445
2022-11-09T07:03:02.440Z,95439
2022-11-09T07:04:11.183Z,95440
2022-11-09T07:05:20.937Z,95444
2022-11-09T07:06:28.901Z,95449
2022-11-09T07:07:37.491Z,95449
2022-11-09T07:08:47.227Z,95453
2022-11-09T07:09:55.069Z,95462
2022-11-09T07:11:04.842Z,95465
2022-11-09T07:12:14.740Z,95471
2022-11-09T07:13:22.839Z,95467
2022-11-09T07:14:30.319Z,95473
2022-11-09T07:15:39.107Z,95470
2022-11-09T07:16:47.892Z,95476
2022-11-09T07:17:57.655Z,95482
2022-11-09T07:19:06.452Z,95478
2022-11-09T07:20:15.222Z,95490
2022-11-09T07:21:24.990Z,95483
2022-11-09T07:22:32.721Z,95481
2022-11-09T07:23:41.485Z,95484
2022-11-09T07:24:51.234Z,95486
2022-11-09T07:26:00.016Z,95481
2022-11-09T07:27:09.728Z,95479
2022-11-09T07:28:18.487Z,95480
2022-11-09T07:29:27.328Z,95482
2022-11-09T07:30:37.101Z,95480
2022-11-09T07:31:45.791Z,95481
2022-11-09T07:33:09.029Z,95480
2022-11-09T07:34:06.337Z,95475
2022-11-09T07:35:16.080Z,95480
2022-11-09T07:36:25.817Z,95480
2022-11-09T07:37:35.602Z,95478
2022-11-09T07:38:45.351Z,95474
2022-11-09T07:39:55.105Z,95471
2022-11-09T07:41:04.941Z,95471
2022-11-09T07:42:14.617Z,95470
2022-11-09T07:43:24.374Z,95472
2022-11-09T07:44:35.131Z,95475
2022-11-09T07:45:44.862Z,95474
2022-11-09T07:46:52.639Z,95467
2022-11-09T07:48:02.490Z,95466
2022-11-09T07:49:13.207Z,95471
2022-11-09T07:50:20.977Z,95469
2022-11-09T07:51:29.672Z,95465
2022-11-09T07:52:38.409Z,95470
2022-11-09T07:53:47.200Z,95471
2022-11-09T07:54:56.927Z,95472
2022-11-09T07:56:05.619Z,95470
2022-11-09T07:57:14.379Z,95471
2022-11-09T07:58:24.096Z,95469
2022-11-09T07:59:32.842Z,95466
2022-11-09T08:00:40.588Z,95468
2022-11-09T08:01:49.406Z,95473
2022-11-09T08:02:58.217Z,95472
2022-11-09T08:04:08.044Z,95475
2022-11-09T08:05:15.742Z,95477
2022-11-09T08:06:24.474Z,95476
2022-11-09T08:07:34.243Z,95479
2022-11-09T08:08:42.009Z,95482
2022-11-09T08:09:51.764Z,95483
2022-11-09T08:11:00.515Z,95484
2022-11-09T08:12:10.250Z,95477
2022-11-09T08:13:20.392Z,95480
2022-11-09T08:14:29.709Z,95480
2022-11-09T08:15:39.495Z,95482
2022-11-09T08:16:49.287Z,95480
2022-11-09T08:17:57.997Z,95485
2022-11-09T08:19:07.761Z,95489
2022-11-09T08:20:16.479Z,95489
2022-11-09T08:21:25.305Z,95492
2022-11-09T08:22:34.998Z,95487
2022-11-09T08:23:44.722Z,95484
2022-11-09T08:24:54.578Z,95495
2022-11-09T08:26:04.296Z,95488
2022-11-09T08:27:12.999Z,95485
2022-11-09T08:28:23.111Z,95488
2022-11-09T08:29:32.471Z,95483
2022-11-09T08:30:42.257Z,95482
2022-11-09T08:31:52.004Z,95483
2022-11-09T08:32:59.811Z,95487
2022-11-09T08:34:08.592Z,95485
2022-11-09T08:35:18.383Z,95489
2022-11-09T08:36:27.115Z,95489
2022-11-09T08:37:34.872Z,95484
2022-11-09T08:38:43.696Z,95494
2022-11-09T08:39:52.475Z,95497
2022-11-09T08:41:02.268Z,95498
2022-11-09T08:42:13.007Z,95499
2022-11-09T08:43:21.803Z,95493
2022-11-09T08:44:31.574Z,95496
2022-11-09T08:45:41.266Z,95496
2022-11-09T08:46:51.008Z,95496
2022-11-09T08:48:00.773Z,95493
2022-11-09T08:49:08.505Z,95499
2022-11-09T08:50:18.242Z,95503
2022-11-09T08:51:27.992Z,95503
2022-11-09T08:52:36.740Z,95506
2022-11-09T08:53:46.594Z,95502
2022-11-09T08:54:55.354Z,95500
2022-11-09T08:56:05.108Z,95501
2022-11-09T08:57:14.878Z,95510
2022-11-09T08:58:23.837Z,95506
2022-11-09T08:59:33.380Z,95515
2022-11-09T09:00:43.183Z,95515
2022-11-09T09:01:52.994Z,95504
2022-11-09T09:03:01.696Z,95506
2022-11-09T09:04:10.486Z,95506
2022-11-09T09:05:19.274Z,95506
2022-11-09T09:06:31.208Z,95511
2022-11-09T09:07:37.856Z,95512
2022-11-09T09:08:47.713Z,95512
2022-11-09T09:09:57.529Z,95514
2022-11-09T09:11:05.237Z,95513
2022-11-09T09:12:15.001Z,95512
2022-11-09T09:13:23.881Z,95516
2022-11-09T09:14:32.624Z,95511
2022-11-09T09:15:42.393Z,95511
2022-11-09T09:16:51.254Z,95513
2022-11-09T09:17:59.983Z,95512
2022-11-09T09:19:09.838Z,95509
2022-11-09T09:20:17.590Z,95514
2022-11-09T09:21:27.288Z,95514
2022-11-09T09:22:36.026Z,95513
2022-11-09T09:23:44.783Z,95519
2022-11-09T09:24:54.588Z,95525
2022-11-09T09:26:02.377Z,95526
2022-11-09T09:27:12.166Z,95529
2022-11-09T09:28:22.264Z,95527
2022-11-09T09:29:30.618Z,95529
2022-11-09T09:30:40.475Z,95526
2022-11-09T09:31:50.158Z,95526
2022-11-09T09:32:58.937Z,95530
2022-11-09T09:34:08.625Z,95529
2022-11-09T09:35:16.400Z,95533
2022-11-09T09:36:25.113Z,95535
2022-11-09T09:37:34.893Z,95538
2022-11-09T09:38:44.649Z,95533
2022-11-09T09:39:54.381Z,95533
2022-11-09T09:41:03.226Z,95530
2022-11-09T09:42:12.998Z,95530
2022-11-09T09:43:22.777Z,95526
2022-11-09T09:44:31.560Z,95523
2022-11-09T09:45:40.291Z,95521
2022-11-09T09:46:50.028Z,95525
2022-11-09T09:47:58.836Z,95525
2022-11-09T09:49:08.675Z,95521
2022-11-09T09:50:18.458Z,95520
2022-11-09T09:51:27.912Z,95523
2022-11-09T09:52:37.671Z,95526
2022-11-09T09:53:47.429Z,95527
2022-11-09T09:54:56.131Z,95528
2022-11-09T09:56:05.914Z,95524
2022-11-09T09:57:14.657Z,95525
2022-11-09T09:58:23.511Z,95524
2022-11-09T09:59:32.334Z,95527
2022-11-09T10:00:41.050Z,95524
2022-11-09T10:01:50.805Z,95528
2022-11-09T10:02:58.586Z,95528
2022-11-09T10:04:08.439Z,95523
2022-11-09T10:05:18.090Z,95526
2022-11-09T10:06:27.930Z,95526
2022-11-09T10:07:36.619Z,95523
2022-11-09T10:08:45.350Z,95528
2022-11-09T10:09:54.132Z,95524
2022-11-09T10:11:03.961Z,95526
2022-11-09T10:12:13.677Z,95524
2022-11-09T10:13:22.415Z,95525
2022-11-09T10:14:32.180Z,95527
2022-11-09T10:15:40.983Z,95531
2022-11-09T10:16:50.789Z,95529
2022-11-09T10:17:59.530Z,95531
2022-11-09T10:19:08.297Z,95531
2022-11-09T10:20:18.041Z,95527
2022-11-09T10:21:26.824Z,95525
2022-11-09T10:22:36.564Z,95526
2022-11-09T10:23:46.346Z,95523
2022-11-09T10:25:18.900Z,95521
2022-11-09T10:26:08.897Z,95520
2022-11-09T10:27:17.477Z,95519
2022-11-09T10:28:26.183Z,95519
2022-11-09T10:29:36.908Z,95515
2022-11-09T10:30:46.698Z,95517
2022-11-09T10:31:55.402Z,95511
2022-11-09T10:33:05.174Z,95512
2022-11-09T10:34:12.976Z,95507
2022-11-09T10:35:21.852Z,95509
2022-11-09T10:36:31.582Z,95507
2022-11-09T10:37:41.276Z,95506
2022-11-09T10:38:50.180Z,95511
2022-11-09T10:39:59.972Z,95502
2022-11-09T10:41:09.647Z,95505
2022-11-09T10:42:19.408Z,95504
2022-11-09T10:43:29.157Z,95506
2022-11-09T10:44:38.949Z,95505
2022-11-09T10:45:48.773Z,95502
2022-11-09T10:46:58.520Z,95500
2022-11-09T10:48:08.410Z,95499
2022-11-09T10:49:18.185Z,95498
2022-11-09T10:50:25.932Z,95496
2022-11-09T10:51:35.793Z,95494
2022-11-09T10:52:47.618Z,95491
2022-11-09T10:53:55.281Z,95489
2022-11-09T10:55:05.075Z,95493
2022-11-09T10:56:20.181Z,95489
2022-11-09T10:57:22.537Z,95485
2022-11-09T10:58:31.265Z,95483
2022-11-09T10:59:39.025Z,95484
2022-11-09T11:00:47.741Z,95476
2022-11-09T11:02:01.983Z,95477
2022-11-09T11:03:06.282Z,95482
2022-11-09T11:04:16.050Z,95483
2022-11-09T11:05:24.778Z,95484
2022-11-09T11:06:33.546Z,95480
2022-11-09T11:07:43.324Z,95479
2022-11-09T11:08:53.065Z,95484
2022-11-09T11:10:01.831Z,95482
2022-11-09T11:11:32.494Z,95475
2022-11-09T11:12:22.280Z,95474
2022-11-09T11:13:32.067Z,95477
2022-11-09T11:14:39.876Z,95475
2022-11-09T11:15:48.567Z,95469
2022-11-09T11:16:58.316Z,95468
2022-11-09T11:18:08.066Z,95468
2022-11-09T11:19:16.820Z,95462
2022-11-09T11:20:25.619Z,95463
2022-11-09T11:21:34.446Z,95466
2022-11-09T11:22:44.197Z,95468
2022-11-09T11:23:51.951Z,95470
2022-11-09T11:25:01.676Z,95466
2022-11-09T11:26:11.512Z,95466
2022-11-09T11:27:20.306Z,95462
2022-11-09T11:28:29.052Z,95459
2022-11-09T11:29:37.838Z,95458
2022-11-09T11:30:46.622Z,95457
2022-11-09T11:31:56.392Z,95447
2022-11-09T11:33:05.082Z,95448
2022-11-09T11:34:26.748Z,95449
2022-11-09T11:35:25.622Z,95447
2022-11-09T11:36:34.375Z,95441
2022-11-09T11:37:44.139Z,95451
2022-11-09T11:38:53.920Z,95450
2022-11-09T11:40:03.747Z,95450
2022-11-09T11:41:13.546Z,95444
2022-11-09T11:42:22.300Z,95449
2022-11-09T11:43:31.095Z,95446
2022-11-09T11:44:40.847Z,95446
2022-11-09T11:45:50.556Z,95453
2022-11-09T11:46:59.378Z,95453
2022-11-09T11:48:09.160Z,95449
2022-11-09T11:49:17.957Z,95451
2022-11-09T11:50:27.901Z,95451
2022-11-09T11:51:36.494Z,95452
2022-11-09T11:52:45.278Z,95457
2022-11-09T11:53:55.041Z,95455
2022-11-09T11:55:02.881Z,95454
2022-11-09T11:56:12.602Z,95447
2022-11-09T11:57:22.315Z,95447
2022-11-09T11:58:32.076Z,95450
2022-11-09T11:59:41.830Z,95443
2022-11-09T12:00:50.730Z,95438
2022-11-09T12:01:59.451Z,95440
2022-11-09T12:03:09.233Z,95443
2022-11-09T12:04:17.972Z,95438
2022-11-09T12:05:27.692Z,95436
2022-11-09T12:06:39.521Z,95431
2022-11-09T12:07:47.137Z,95432
2022-11-09T12:08:57.956Z,95433
2022-11-09T12:10:07.672Z,95433
2022-11-09T12:11:17.378Z,95431
2022-11-09T12:12:27.108Z,95427
2022-11-09T12:13:34.850Z,95423
2022-11-09T12:14:44.582Z,95422
2022-11-09T12:15:53.313Z,95425
2022-11-09T12:17:02.020Z,95424
2022-11-09T12:18:11.774Z,95423
2022-11-09T12:19:25.503Z,95426
2022-11-09T12:20:29.199Z,95427
2022-11-09T12:21:38.965Z,95418
2022-11-09T12:22:47.713Z,95417
2022-11-09T12:23:57.483Z,95418
2022-11-09T12:25:06.206Z,95415
2022-11-09T12:26:17.096Z,95414
2022-11-09T12:27:31.891Z,95415
2022-11-09T12:28:36.327Z,95422
2022-11-09T12:29:45.095Z,95420
2022-11-09T12:30:54.815Z,95417
2022-11-09T12:32:02.675Z,95419
2022-11-09T12:33:12.358Z,95421
2022-11-09T12:34:22.105Z,95415
2022-11-09T12:35:30.964Z,95417
2022-11-09T12:36:40.728Z,95417
2022-11-09T12:37:50.460Z,95412
2022-11-09T12:39:00.249Z,95411
2022-11-09T12:40:10.003Z,95411
2022-11-09T12:41:19.746Z,95418
2022-11-09T12:42:29.514Z,95413
2022-11-09T12:43:39.312Z,95418
2022-11-09T12:44:46.117Z,95416
2022-11-09T12:45:55.007Z,95418
2022-11-09T12:47:05.104Z,95417
2022-11-09T12:48:13.858Z,95415
2022-11-09T12:49:22.704Z,95408
2022-11-09T12:50:32.464Z,95408
2022-11-09T12:51:42.212Z,95407
2022-11-09T12:52:51.991Z,95402
2022-11-09T12:54:01.873Z,95402
2022-11-09T12:55:11.610Z,95398
2022-11-09T12:56:21.377Z,95400
2022-11-09T12:57:29.125Z,95396
2022-11-09T12:58:38.967Z,95398
2022-11-09T12:59:48.740Z,95394
2022-11-09T13:00:57.499Z,95398
2022-11-09T13:02:07.251Z,95394
2022-11-09T13:03:16.016Z,95393
2022-11-09T13:04:24.808Z,95394
2022-11-09T13:05:34.536Z,95391
2022-11-09T13:06:43.310Z,95391
2022-11-09T13:07:52.964Z,95393
2022-11-09T13:09:01.721Z,95383
2022-11-09T13:10:10.462Z,95389
2022-11-09T13:11:20.246Z,95393
2022-11-09T13:12:28.062Z,95387
2022-11-09T13:13:37.742Z,95395
2022-11-09T13:14:47.535Z,95390
2022-11-09T13:15:56.322Z,95389
2022-11-09T13:17:05.095Z,95391
2022-11-09T13:18:14.928Z,95390
2022-11-09T13:19:24.626Z,95393
2022-11-09T13:20:53.737Z,95387
2022-11-09T13:21:45.142Z,95389
2022-11-09T13:22:54.893Z,95390
2022-11-09T13:24:06.831Z,95389
2022-11-09T13:25:15.337Z,95388
2022-11-09T13:26:24.105Z,95383
2022-11-09T13:27:32.880Z,95384
2022-11-09T13:28:41.629Z,95391
2022-11-09T13:31:01.048Z,95383
2022-11-09T13:32:09.750Z,95382
2022-11-09T13:33:19.974Z,95382
2022-11-09T13:34:27.234Z,95383
2022-11-09T13:35:35.991Z,95380
2022-11-09T13:36:44.762Z,95384
2022-11-09T13:37:53.516Z,95385
2022-11-09T13:39:03.473Z,95383
2022-11-09T13:40:11.216Z,95383
2022-11-09T13:41:21.004Z,95382
2022-11-09T13:42:30.797Z,95379
2022-11-09T13:43:39.527Z,95377
2022-11-09T13:44:49.310Z,95378
2022-11-09T13:45:59.029Z,95380
2022-11-09T13:47:08.753Z,95378
2022-11-09T13:48:18.623Z,95376
2022-11-09T13:49:26.285Z,95379
2022-11-09T13:50:36.157Z,95374
2022-11-09T13:51:45.884Z,95381
2022-11-09T13:52:54.596Z,95381
2022-11-09T13:54:04.399Z,95381
2022-11-09T13:55:14.151Z,95381
2022-11-09T13:56:27.114Z,95381
2022-11-09T13:57:32.766Z,95385
2022-11-09T13:58:40.517Z,95386
2022-11-09T13:59:50.396Z,95390
2022-11-09T14:01:00.131Z,95392
2022-11-09T14:02:08.984Z,95392
2022-11-09T14:03:16.624Z,95390
2022-11-09T14:04:26.355Z,95394
2022-11-09T14:05:35.153Z,95397
2022-11-09T14:06:44.970Z,95399
2022-11-09T14:07:53.658Z,95400
2022-11-09T14:09:02.398Z,95400
2022-11-09T14:10:12.129Z,95403
2022-11-09T14:11:20.902Z,95406
2022-11-09T14:12:29.642Z,95401
2022-11-09T14:13:38.535Z,95401
2022-11-09T14:14:47.317Z,95397
2022-11-09T14:15:57.906Z,95396
2022-11-09T14:17:06.653Z,95404
2022-11-09T14:18:16.495Z,95401
2022-11-09T14:19:26.404Z,95401
2022-11-09T14:20:34.196Z,95402
2022-11-09T14:21:43.994Z,95406
2022-11-09T14:22:53.746Z,95405
2022-11-09T14:24:03.403Z,95405
2022-11-09T14:25:13.157Z,95406
2022-11-09T14:26:20.890Z,95405
2022-11-09T14:27:30.636Z,95407
2022-11-09T14:28:40.381Z,95402
2022-11-09T14:29:49.097Z,95400
2022-11-09T14:30:57.849Z,95401
2022-11-09T14:32:07.531Z,95399
2022-11-09T14:33:16.261Z,95403
2022-11-09T14:34:26.075Z,95398
2022-11-09T14:35:35.764Z,95398
2022-11-09T14:36:43.538Z,95404
2022-11-09T14:37:52.338Z,95405
2022-11-09T14:39:01.038Z,95400
2022-11-09T14:40:09.788Z,95400
2022-11-09T14:41:19.502Z,95396
2022-11-09T14:42:28.295Z,95392
2022-11-09T14:43:38.056Z,95397
2022-11-09T14:44:47.806Z,95399
2022-11-09T14:45:56.641Z,95398
2022-11-09T14:47:05.389Z,95399
2022-11-09T14:48:14.153Z,95397
2022-11-09T14:49:22.888Z,95399
2022-11-09T14:50:32.733Z,95402
2022-11-09T14:51:42.462Z,95405